createdAt,value
2022-10-19T00:00:53.590Z,88.90
2022-10-19T00:01:53.625Z,88.96
2022-10-19T00:02:53.605Z,88.96
2022-10-19T00:03:53.596Z,88.14
2022-10-19T00:04:53.568Z,87.16
2022-10-19T00:05:53.571Z,88.39
2022-10-19T00:06:53.547Z,88.79
2022-10-19T00:07:53.557Z,88.69
2022-10-19T00:08:53.574Z,87.98
2022-10-19T00:09:53.534Z,87.47
2022-10-19T00:10:53.539Z,88.08
2022-10-19T00:11:53.510Z,88.08
2022-10-19T00:12:53.536Z,88.59
2022-10-19T00:13:53.542Z,88.93
2022-10-19T00:14:53.502Z,88.93
2022-10-19T00:15:53.494Z,88.39
2022-10-19T00:16:53.483Z,88.39
2022-10-19T00:17:53.488Z,88.18
2022-10-19T00:18:53.494Z,88.49
2022-10-19T00:19:53.486Z,88.49
2022-10-19T00:20:53.462Z,89.14
2022-10-19T00:21:53.466Z,89.20
2022-10-19T00:22:53.457Z,89.10
2022-10-19T00:23:53.446Z,88.90
2022-10-19T00:24:54.411Z,88.59
2022-10-19T00:25:53.481Z,87.98
2022-10-19T00:26:53.422Z,87.57
2022-10-19T00:27:53.409Z,87.98
2022-10-19T00:28:53.509Z,88.28
2022-10-19T00:29:53.407Z,88.08
2022-10-19T00:30:53.399Z,88.39
2022-10-19T00:31:53.389Z,87.63
2022-10-19T00:32:53.381Z,87.94
2022-10-19T00:33:53.370Z,86.30
2022-10-19T00:34:53.378Z,87.30
2022-10-19T00:35:53.382Z,87.76
2022-10-19T00:36:53.349Z,89.23
2022-10-19T00:37:53.358Z,89.08
2022-10-19T00:38:53.325Z,89.86
2022-10-19T00:39:53.349Z,89.04
2022-10-19T00:40:53.326Z,88.67
2022-10-19T00:41:53.334Z,88.84
2022-10-19T00:42:53.314Z,89.08
2022-10-19T00:43:53.327Z,89.34
2022-10-19T00:44:53.332Z,88.57
2022-10-19T00:45:53.297Z,88.17
2022-10-19T00:46:53.296Z,87.92
2022-10-19T00:47:53.278Z,87.85
2022-10-19T00:48:53.271Z,88.98
2022-10-19T00:49:53.274Z,88.98
2022-10-19T00:50:53.277Z,89.14
2022-10-19T00:51:53.257Z,88.93
2022-10-19T00:52:53.241Z,88.53
2022-10-19T00:53:53.253Z,88.53
2022-10-19T00:54:53.230Z,89.14
2022-10-19T00:55:53.270Z,88.59
2022-10-19T00:56:53.214Z,88.08
2022-10-19T00:57:53.242Z,87.77
2022-10-19T00:58:53.226Z,87.47
2022-10-19T00:59:53.221Z,87.26
2022-10-19T01:00:53.248Z,87.00
2022-10-19T01:01:53.294Z,88.06
2022-10-19T01:02:53.175Z,88.88
2022-10-19T01:03:53.197Z,88.88
2022-10-19T01:04:53.170Z,88.84
2022-10-19T01:05:53.166Z,89.39
2022-10-19T01:06:53.196Z,89.34
2022-10-19T01:07:53.163Z,89.04
2022-10-19T01:08:53.145Z,89.10
2022-10-19T01:09:53.186Z,88.32
2022-10-19T01:10:53.130Z,89.18
2022-10-19T01:11:53.133Z,89.28
2022-10-19T01:12:53.109Z,89.34
2022-10-19T01:13:53.101Z,89.25
2022-10-19T01:14:53.117Z,88.90
2022-10-19T01:16:53.098Z,87.67
2022-10-19T01:17:53.979Z,87.67
2022-10-19T01:18:53.122Z,87.94
2022-10-19T01:19:53.065Z,87.73
2022-10-19T01:20:53.050Z,87.94
2022-10-19T01:21:53.073Z,87.63
2022-10-19T01:22:53.064Z,88.04
2022-10-19T01:23:53.029Z,88.08
2022-10-19T01:24:53.018Z,88.04
2022-10-19T01:25:53.017Z,88.49
2022-10-19T01:26:53.050Z,88.34
2022-10-19T01:27:53.008Z,88.08
2022-10-19T01:28:53.097Z,88.39
2022-10-19T01:29:53.006Z,89.20
2022-10-19T01:30:52.989Z,89.25
2022-10-19T01:31:52.985Z,89.20
2022-10-19T01:32:52.998Z,88.79
2022-10-19T01:33:53.015Z,89.45
2022-10-19T01:34:52.965Z,89.45
2022-10-19T01:35:52.939Z,90.20
2022-10-19T01:36:52.953Z,90.04
2022-10-19T01:37:52.965Z,91.16
2022-10-19T01:38:52.928Z,91.02
2022-10-19T01:39:52.921Z,91.02
2022-10-19T01:40:52.933Z,91.59
2022-10-19T01:41:52.933Z,90.42
2022-10-19T01:42:52.901Z,89.61
2022-10-19T01:43:52.931Z,89.30
2022-10-19T01:44:52.884Z,89.92
2022-10-19T01:45:52.881Z,90.22
2022-10-19T01:46:52.891Z,89.45
2022-10-19T01:47:52.878Z,89.25
2022-10-19T01:48:52.879Z,90.10
2022-10-19T01:49:52.863Z,90.51
2022-10-19T01:50:52.849Z,91.88
2022-10-19T01:51:52.871Z,90.92
2022-10-19T01:52:52.856Z,91.67
2022-10-19T01:53:52.837Z,91.57
2022-10-19T01:54:52.824Z,92.49
2022-10-19T01:55:52.823Z,93.57
2022-10-19T01:56:52.808Z,92.29
2022-10-19T01:57:52.810Z,92.45
2022-10-19T01:58:52.810Z,91.69
2022-10-19T01:59:52.789Z,91.49
2022-10-19T02:00:52.914Z,90.12
2022-10-19T02:01:53.792Z,90.47
2022-10-19T02:02:52.773Z,90.32
2022-10-19T02:03:52.784Z,90.26
2022-10-19T02:04:52.775Z,89.81
2022-10-19T02:05:52.753Z,89.65
2022-10-19T02:06:52.749Z,90.16
2022-10-19T02:07:52.735Z,90.26
2022-10-19T02:08:52.746Z,90.36
2022-10-19T02:09:52.721Z,90.88
2022-10-19T02:10:52.897Z,90.71
2022-10-19T02:11:56.160Z,91.22
2022-10-19T02:12:52.705Z,91.18
2022-10-19T02:13:53.509Z,91.83
2022-10-19T02:14:52.708Z,91.22
2022-10-19T02:15:52.765Z,91.18
2022-10-19T02:16:52.677Z,91.39
2022-10-19T02:17:52.678Z,90.77
2022-10-19T02:18:52.682Z,89.71
2022-10-19T02:19:52.673Z,89.55
2022-10-19T02:20:52.725Z,90.22
2022-10-19T02:21:52.652Z,89.92
2022-10-19T02:22:52.624Z,90.01
2022-10-19T02:23:54.195Z,89.81
2022-10-19T02:24:52.638Z,89.87
2022-10-19T02:25:52.622Z,89.47
2022-10-19T02:26:52.617Z,89.34
2022-10-19T02:27:52.601Z,89.96
2022-10-19T02:28:52.615Z,90.31
2022-10-19T02:29:52.620Z,91.63
2022-10-19T02:30:52.588Z,91.88
2022-10-19T02:31:52.585Z,91.37
2022-10-19T02:32:52.566Z,91.52
2022-10-19T02:33:52.561Z,93.25
2022-10-19T02:34:52.570Z,93.15
2022-10-19T02:35:53.468Z,92.99
2022-10-19T02:36:52.540Z,94.32
2022-10-19T02:37:52.545Z,94.97
2022-10-19T02:38:52.529Z,94.67
2022-10-19T02:39:52.520Z,94.46
2022-10-19T02:40:52.546Z,95.44
2022-10-19T02:41:52.500Z,95.29
2022-10-19T02:42:52.501Z,94.53
2022-10-19T02:43:52.521Z,94.33
2022-10-19T02:44:52.487Z,93.05
2022-10-19T02:45:52.520Z,93.31
2022-10-19T02:46:52.498Z,92.43
2022-10-19T02:47:52.476Z,93.51
2022-10-19T02:48:52.495Z,91.83
2022-10-19T02:49:52.472Z,91.18
2022-10-19T02:50:52.453Z,91.43
2022-10-19T02:51:52.449Z,90.71
2022-10-19T02:52:52.449Z,91.16
2022-10-19T02:53:52.444Z,91.31
2022-10-19T02:54:52.421Z,92.23
2022-10-19T02:55:52.450Z,92.58
2022-10-19T02:56:52.417Z,93.85
2022-10-19T02:57:52.424Z,94.11
2022-10-19T02:58:52.393Z,93.91
2022-10-19T02:59:52.392Z,94.01
2022-10-19T03:00:52.459Z,94.52
2022-10-19T03:01:52.387Z,94.56
2022-10-19T03:02:52.385Z,94.82
2022-10-19T03:03:52.375Z,94.52
2022-10-19T03:04:52.367Z,94.07
2022-10-19T03:05:52.369Z,94.01
2022-10-19T03:06:52.349Z,94.15
2022-10-19T03:07:52.349Z,94.56
2022-10-19T03:08:52.333Z,94.77
2022-10-19T03:09:52.336Z,95.48
2022-10-19T03:10:52.321Z,94.36
2022-10-19T03:11:52.352Z,95.59
2022-10-19T03:12:52.309Z,94.46
2022-10-19T03:13:52.308Z,93.85
2022-10-19T03:14:52.320Z,94.15
2022-10-19T03:15:52.296Z,95.38
2022-10-19T03:16:52.418Z,95.32
2022-10-19T03:17:52.277Z,96.00
2022-10-19T03:18:52.290Z,94.87
2022-10-19T03:19:52.253Z,94.40
2022-10-19T03:20:52.289Z,94.77
2022-10-19T03:21:52.244Z,94.77
2022-10-19T03:23:52.288Z,94.67
2022-10-19T03:24:52.228Z,95.59
2022-10-19T03:25:52.240Z,94.56
2022-10-19T03:26:52.235Z,94.67
2022-10-19T03:27:52.212Z,94.67
2022-10-19T03:28:52.265Z,94.46
2022-10-19T03:29:52.203Z,94.26
2022-10-19T03:30:52.188Z,94.77
2022-10-19T03:31:52.193Z,94.71
2022-10-19T03:32:52.195Z,94.46
2022-10-19T03:33:52.184Z,94.56
2022-10-19T03:34:52.205Z,94.73
2022-10-19T03:35:52.164Z,94.15
2022-10-19T03:36:52.160Z,93.50
2022-10-19T03:37:52.132Z,93.86
2022-10-19T03:38:52.140Z,93.00
2022-10-19T03:39:52.133Z,92.13
2022-10-19T03:40:52.120Z,92.49
2022-10-19T03:41:52.140Z,92.19
2022-10-19T03:42:52.116Z,91.37
2022-10-19T03:43:52.182Z,91.16
2022-10-19T03:44:52.100Z,90.71
2022-10-19T03:45:52.092Z,90.20
2022-10-19T03:46:52.075Z,90.04
2022-10-19T03:47:52.087Z,90.04
2022-10-19T03:48:52.094Z,89.98
2022-10-19T03:49:52.061Z,90.80
2022-10-19T03:50:52.062Z,91.67
2022-10-19T03:51:52.053Z,91.78
2022-10-19T03:52:52.096Z,90.71
2022-10-19T03:53:52.055Z,90.00
2022-10-19T03:54:52.028Z,89.86
2022-10-19T03:55:52.065Z,90.00
2022-10-19T03:56:52.093Z,89.28
2022-10-19T03:57:52.025Z,89.49
2022-10-19T03:58:52.012Z,89.90
2022-10-19T03:59:52.007Z,90.20
2022-10-19T04:00:52.033Z,89.14
2022-10-19T04:01:52.853Z,89.08
2022-10-19T04:02:51.999Z,88.88
2022-10-19T04:03:52.017Z,89.04
2022-10-19T04:04:51.962Z,88.79
2022-10-19T04:05:51.970Z,88.08
2022-10-19T04:06:51.941Z,87.06
2022-10-19T04:07:51.949Z,87.35
2022-10-19T04:08:51.956Z,88.20
2022-10-19T04:09:52.022Z,89.37
2022-10-19T04:10:51.949Z,89.43
2022-10-19T04:11:51.908Z,89.17
2022-10-19T04:12:53.889Z,89.47
2022-10-19T04:13:52.934Z,89.69
2022-10-19T04:14:57.293Z,88.98
2022-10-19T04:15:53.885Z,88.43
2022-10-19T04:16:52.463Z,87.20
2022-10-19T04:17:52.474Z,86.49
2022-10-19T04:18:51.870Z,85.84
2022-10-19T04:19:51.904Z,85.53
2022-10-19T04:20:51.845Z,86.29
2022-10-19T04:21:51.852Z,85.84
2022-10-19T04:22:51.854Z,85.88
2022-10-19T04:23:51.851Z,85.43
2022-10-19T04:24:52.409Z,84.61
2022-10-19T04:25:51.921Z,84.92
2022-10-19T04:26:51.860Z,85.02
2022-10-19T04:27:51.800Z,84.82
2022-10-19T04:28:51.857Z,85.02
2022-10-19T04:29:51.812Z,84.72
2022-10-19T04:30:51.781Z,84.41
2022-10-19T04:31:51.822Z,84.51
2022-10-19T04:32:51.797Z,84.75
2022-10-19T04:33:51.778Z,85.27
2022-10-19T04:34:51.818Z,86.18
2022-10-19T04:35:51.746Z,85.88
2022-10-19T04:36:51.774Z,85.61
2022-10-19T04:37:51.785Z,86.57
2022-10-19T04:38:51.829Z,87.18
2022-10-19T04:39:51.813Z,87.24
2022-10-19T04:40:51.749Z,87.55
2022-10-19T04:41:51.704Z,86.94
2022-10-19T04:42:51.706Z,86.49
2022-10-19T04:43:51.833Z,85.88
2022-10-19T04:44:51.901Z,86.39
2022-10-19T04:45:51.696Z,85.57
2022-10-19T04:46:51.692Z,85.98
2022-10-19T04:47:51.668Z,85.88
2022-10-19T04:48:51.696Z,86.39
2022-10-19T04:49:51.685Z,86.29
2022-10-19T04:50:51.839Z,85.77
2022-10-19T04:51:52.434Z,86.33
2022-10-19T04:52:51.688Z,87.08
2022-10-19T04:53:53.362Z,87.63
2022-10-19T04:54:51.629Z,87.90
2022-10-19T04:55:52.633Z,88.10
2022-10-19T04:56:51.616Z,88.10
2022-10-19T04:57:51.624Z,87.90
2022-10-19T04:58:51.599Z,87.94
2022-10-19T04:59:51.612Z,88.79
2022-10-19T05:00:51.665Z,88.96
2022-10-19T05:01:51.577Z,88.92
2022-10-19T05:03:24.016Z,88.61
2022-10-19T05:03:51.609Z,88.10
2022-10-19T05:04:51.614Z,88.37
2022-10-19T05:05:51.572Z,88.88
2022-10-19T05:06:51.588Z,88.26
2022-10-19T05:07:51.542Z,87.96
2022-10-19T05:08:51.540Z,86.59
2022-10-19T05:09:51.551Z,86.73
2022-10-19T05:10:51.514Z,87.14
2022-10-19T05:11:51.534Z,87.00
2022-10-19T05:12:51.502Z,87.24
2022-10-19T05:13:51.495Z,86.39
2022-10-19T05:14:51.510Z,87.14
2022-10-19T05:15:51.547Z,87.24
2022-10-19T05:16:51.491Z,87.30
2022-10-19T05:17:51.522Z,86.90
2022-10-19T05:18:51.502Z,86.69
2022-10-19T05:19:51.494Z,86.80
2022-10-19T05:20:51.441Z,87.10
2022-10-19T05:21:51.453Z,87.10
2022-10-19T05:22:51.558Z,87.20
2022-10-19T05:23:51.457Z,86.49
2022-10-19T05:24:54.505Z,86.45
2022-10-19T05:25:53.434Z,86.76
2022-10-19T05:26:51.441Z,86.04
2022-10-19T05:27:51.416Z,86.73
2022-10-19T05:28:51.419Z,88.31
2022-10-19T05:29:51.407Z,89.37
2022-10-19T05:30:51.442Z,89.43
2022-10-19T05:31:51.413Z,89.08
2022-10-19T05:32:51.422Z,88.78
2022-10-19T05:33:51.438Z,88.22
2022-10-19T05:34:51.402Z,87.61
2022-10-19T05:35:51.357Z,87.98
2022-10-19T05:36:51.357Z,88.08
2022-10-19T05:37:51.422Z,87.30
2022-10-19T05:38:51.346Z,88.10
2022-10-19T05:39:51.333Z,88.55
2022-10-19T05:40:53.576Z,89.92
2022-10-19T05:41:51.318Z,90.64
2022-10-19T05:42:51.342Z,91.61
2022-10-19T05:43:51.318Z,90.49
2022-10-19T05:44:51.315Z,89.84
2022-10-19T05:45:51.290Z,88.88
2022-10-19T05:46:51.358Z,89.34
2022-10-19T05:47:51.285Z,88.63
2022-10-19T05:48:51.986Z,87.96
2022-10-19T05:49:51.270Z,88.71
2022-10-19T05:50:51.278Z,89.23
2022-10-19T05:51:51.277Z,89.02
2022-10-19T05:52:51.266Z,90.04
2022-10-19T05:53:51.274Z,90.39
2022-10-19T05:54:51.222Z,91.78
2022-10-19T05:55:51.222Z,90.45
2022-10-19T05:56:51.294Z,90.00
2022-10-19T05:57:51.231Z,89.25
2022-10-19T05:58:52.029Z,89.14
2022-10-19T05:59:51.193Z,88.53
2022-10-19T06:00:51.211Z,87.57
2022-10-19T06:01:51.211Z,87.47
2022-10-19T06:02:53.697Z,87.82
2022-10-19T06:03:51.162Z,87.76
2022-10-19T06:04:51.167Z,88.67
2022-10-19T06:05:51.991Z,89.94
2022-10-19T06:06:51.137Z,90.04
2022-10-19T06:07:51.161Z,89.94
2022-10-19T06:08:51.144Z,89.53
2022-10-19T06:09:51.121Z,90.45
2022-10-19T06:10:51.134Z,90.45
2022-10-19T06:11:51.109Z,90.55
2022-10-19T06:12:51.198Z,90.39
2022-10-19T06:13:51.105Z,90.75
2022-10-19T06:14:51.174Z,89.84
2022-10-19T06:15:51.096Z,90.35
2022-10-19T06:16:51.131Z,89.63
2022-10-19T06:17:51.082Z,90.86
2022-10-19T06:18:51.086Z,90.31
2022-10-19T06:19:51.077Z,89.08
2022-10-19T06:20:51.058Z,88.90
2022-10-19T06:21:51.224Z,88.18
2022-10-19T06:22:51.050Z,88.22
2022-10-19T06:23:51.060Z,88.22
2022-10-19T06:24:51.050Z,88.53
2022-10-19T06:25:51.018Z,88.98
2022-10-19T06:26:51.054Z,88.47
2022-10-19T06:27:51.044Z,89.53
2022-10-19T06:28:51.018Z,89.23
2022-10-19T06:29:51.006Z,90.04
2022-10-19T06:30:51.036Z,89.90
2022-10-19T06:31:51.082Z,89.25
2022-10-19T06:32:51.138Z,89.45
2022-10-19T06:33:51.006Z,88.32
2022-10-19T06:34:55.717Z,88.12
2022-10-19T06:35:52.970Z,87.88
2022-10-19T06:36:50.947Z,88.06
2022-10-19T06:37:50.942Z,89.23
2022-10-19T06:38:51.015Z,89.88
2022-10-19T06:39:51.212Z,90.04
2022-10-19T06:40:50.923Z,90.00
2022-10-19T06:41:50.939Z,89.79
2022-10-19T06:42:50.939Z,89.84
2022-10-19T06:43:50.955Z,89.90
2022-10-19T06:44:50.917Z,89.84
2022-10-19T06:45:50.933Z,89.94
2022-10-19T06:46:50.943Z,89.84
2022-10-19T06:47:51.010Z,90.55
2022-10-19T06:48:50.916Z,89.90
2022-10-19T06:49:50.882Z,89.39
2022-10-19T06:50:50.857Z,89.32
2022-10-19T06:51:50.842Z,90.00
2022-10-19T06:52:50.975Z,89.59
2022-10-19T06:53:52.815Z,89.18
2022-10-19T06:54:51.862Z,89.08
2022-10-19T06:55:50.814Z,89.63
2022-10-19T06:56:50.845Z,89.18
2022-10-19T06:57:50.858Z,89.02
2022-10-19T06:58:50.817Z,88.57
2022-10-19T06:59:52.880Z,88.12
2022-10-19T07:00:50.873Z,87.57
2022-10-19T07:01:50.781Z,86.92
2022-10-19T07:02:50.807Z,85.69
2022-10-19T07:03:50.770Z,85.49
2022-10-19T07:04:50.774Z,85.80
2022-10-19T07:05:50.775Z,84.78
2022-10-19T07:06:50.741Z,84.92
2022-10-19T07:07:50.817Z,85.02
2022-10-19T07:08:50.729Z,85.63
2022-10-19T07:09:50.726Z,86.04
2022-10-19T07:10:50.717Z,85.90
2022-10-19T07:11:50.762Z,85.28
2022-10-19T07:12:50.714Z,84.67
2022-10-19T07:13:50.697Z,85.19
2022-10-19T07:14:50.685Z,84.67
2022-10-19T07:15:50.713Z,84.78
2022-10-19T07:16:50.699Z,84.92
2022-10-19T07:17:50.682Z,85.28
2022-10-19T07:18:50.668Z,84.67
2022-10-19T07:19:50.653Z,84.67
2022-10-19T07:20:50.677Z,85.19
2022-10-19T07:21:50.654Z,84.64
2022-10-19T07:22:50.646Z,84.53
2022-10-19T07:23:50.635Z,84.72
2022-10-19T07:24:50.661Z,85.60
2022-10-19T07:25:50.626Z,85.22
2022-10-19T07:26:50.609Z,85.49
2022-10-19T07:27:50.965Z,85.63
2022-10-19T07:28:50.669Z,85.28
2022-10-19T07:29:50.595Z,85.28
2022-10-19T07:30:50.617Z,85.39
2022-10-19T07:31:50.587Z,84.74
2022-10-19T07:32:50.617Z,85.22
2022-10-19T07:33:50.560Z,85.63
2022-10-19T07:34:50.556Z,85.74
2022-10-19T07:35:50.563Z,85.84
2022-10-19T07:36:50.561Z,85.74
2022-10-19T07:37:50.561Z,85.39
2022-10-19T07:38:50.537Z,86.35
2022-10-19T07:39:50.586Z,87.00
2022-10-19T07:40:50.544Z,86.90
2022-10-19T07:41:50.516Z,87.51
2022-10-19T07:42:50.528Z,87.71
2022-10-19T07:43:50.511Z,87.26
2022-10-19T07:44:50.512Z,86.15
2022-10-19T07:45:50.497Z,85.80
2022-10-19T07:46:50.485Z,84.53
2022-10-19T07:47:50.483Z,84.74
2022-10-19T07:48:50.472Z,84.47
2022-10-19T07:49:50.575Z,84.67
2022-10-19T07:50:50.452Z,84.47
2022-10-19T07:51:50.457Z,84.67
2022-10-19T07:52:50.476Z,84.74
2022-10-19T07:53:50.481Z,83.48
2022-10-19T07:54:50.500Z,83.27
2022-10-19T07:55:50.456Z,82.82
2022-10-19T07:56:50.431Z,83.03
2022-10-19T07:57:50.419Z,82.48
2022-10-19T07:58:50.404Z,82.18
2022-10-19T07:59:50.403Z,82.68
2022-10-19T08:00:50.436Z,81.77
2022-10-19T08:01:50.522Z,80.76
2022-10-19T08:03:00.096Z,80.21
2022-10-19T08:05:02.062Z,79.46
2022-10-19T08:05:52.370Z,79.42
2022-10-19T08:06:50.355Z,79.43
2022-10-19T08:07:50.367Z,81.30
2022-10-19T08:08:50.361Z,81.37
2022-10-19T08:09:54.333Z,81.71
2022-10-19T08:10:51.351Z,83.27
2022-10-19T08:11:50.340Z,83.48
2022-10-19T08:12:50.335Z,83.13
2022-10-19T08:13:50.314Z,81.46
2022-10-19T08:14:50.302Z,80.65
2022-10-19T08:15:50.303Z,81.30
2022-10-19T08:16:50.286Z,82.62
2022-10-19T08:17:50.310Z,82.82
2022-10-19T08:18:50.279Z,81.57
2022-10-19T08:19:50.270Z,81.19
2022-10-19T08:20:50.275Z,78.10
2022-10-19T08:21:50.264Z,77.62
2022-10-19T08:22:52.040Z,74.88
2022-10-19T08:23:50.258Z,74.64
2022-10-19T08:24:50.250Z,72.92
2022-10-19T08:25:50.236Z,69.04
2022-10-19T08:26:50.234Z,70.89
2022-10-19T08:27:50.222Z,70.12
2022-10-19T08:28:50.238Z,72.52
2022-10-19T08:29:50.215Z,73.12
2022-10-19T08:30:50.206Z,74.44
2022-10-19T08:31:50.224Z,72.65
2022-10-19T08:32:50.191Z,74.27
2022-10-19T08:33:50.195Z,73.90
2022-10-19T08:34:50.218Z,74.44
2022-10-19T08:35:50.167Z,75.28
2022-10-19T08:36:50.167Z,74.68
2022-10-19T08:37:50.565Z,73.36
2022-10-19T08:38:50.164Z,72.58
2022-10-19T08:39:50.171Z,71.67
2022-10-19T08:40:50.133Z,71.44
2022-10-19T08:41:51.068Z,71.20
2022-10-19T08:42:50.131Z,71.97
2022-10-19T08:43:50.149Z,71.47
2022-10-19T08:44:50.122Z,67.30
2022-10-19T08:45:50.139Z,65.95
2022-10-19T08:46:50.147Z,66.73
2022-10-19T08:47:50.229Z,62.85
2022-10-19T08:48:50.099Z,60.53
2022-10-19T08:49:50.080Z,60.91
2022-10-19T08:50:50.073Z,59.16
2022-10-19T08:51:50.113Z,55.94
2022-10-19T08:52:50.065Z,56.02
2022-10-19T08:53:50.053Z,57.08
2022-10-19T08:54:50.095Z,59.58
2022-10-19T08:55:50.041Z,61.40
2022-10-19T08:56:51.834Z,63.30
2022-10-19T08:57:51.057Z,64.98
2022-10-19T08:58:50.025Z,64.21
2022-10-19T08:59:50.096Z,64.87
2022-10-19T09:00:50.032Z,66.69
2022-10-19T09:01:50.024Z,69.61
2022-10-19T09:02:50.086Z,71.06
2022-10-19T09:03:55.451Z,70.36
2022-10-19T09:04:52.199Z,71.20
2022-10-19T09:05:50.048Z,72.68
2022-10-19T09:06:49.988Z,72.68
2022-10-19T09:07:50.007Z,72.68
2022-10-19T09:08:50.013Z,72.61
2022-10-19T09:09:49.998Z,72.82
2022-10-19T09:10:49.982Z,74.68
2022-10-19T09:11:49.948Z,74.54
2022-10-19T09:12:52.818Z,74.44
2022-10-19T09:14:04.842Z,73.90
2022-10-19T09:14:51.937Z,73.63
2022-10-19T09:15:49.930Z,74.27
2022-10-19T09:16:49.917Z,76.07
2022-10-19T09:17:50.018Z,77.87
2022-10-19T09:18:49.996Z,78.62
2022-10-19T09:19:49.922Z,79.43
2022-10-19T09:20:49.939Z,80.15
2022-10-19T09:21:49.925Z,80.00
2022-10-19T09:22:49.875Z,78.00
2022-10-19T09:23:49.894Z,76.95
2022-10-19T09:24:49.862Z,76.20
2022-10-19T09:25:49.867Z,74.85
2022-10-19T09:26:49.910Z,73.86
2022-10-19T09:27:49.846Z,73.02
2022-10-19T09:28:49.867Z,72.41
2022-10-19T09:29:49.823Z,71.20
2022-10-19T09:30:49.818Z,70.45
2022-10-19T09:31:49.864Z,71.44
2022-10-19T09:32:49.811Z,72.48
2022-10-19T09:33:49.839Z,73.29
2022-10-19T09:34:49.834Z,72.99
2022-10-19T09:35:49.792Z,73.33
2022-10-19T09:36:51.162Z,74.54
2022-10-19T09:37:49.793Z,72.52
2022-10-19T09:38:49.771Z,72.68
2022-10-19T09:39:54.057Z,71.13
2022-10-19T09:40:51.761Z,70.73
2022-10-19T09:41:49.792Z,69.98
2022-10-19T09:42:49.754Z,69.34
2022-10-19T09:43:49.779Z,69.65
2022-10-19T09:44:49.751Z,68.57
2022-10-19T09:45:49.786Z,67.40
2022-10-19T09:46:49.754Z,66.69
2022-10-19T09:47:49.723Z,66.69
2022-10-19T09:48:49.722Z,67.19
2022-10-19T09:49:49.764Z,66.76
2022-10-19T09:50:49.680Z,67.56
2022-10-19T09:51:49.791Z,68.41
2022-10-19T09:52:49.671Z,65.92
2022-10-19T09:53:49.707Z,65.19
2022-10-19T09:54:49.967Z,63.65
2022-10-19T09:56:50.431Z,56.70
2022-10-19T09:57:49.764Z,51.47
2022-10-19T09:58:50.382Z,52.02
2022-10-19T09:59:49.803Z,53.89
2022-10-19T10:00:49.670Z,55.47
2022-10-19T10:01:49.735Z,55.93
2022-10-19T10:02:49.619Z,55.93
2022-10-19T10:03:52.500Z,55.68
2022-10-19T10:04:50.604Z,53.55
2022-10-19T10:05:49.635Z,54.67
2022-10-19T10:06:49.604Z,55.02
2022-10-19T10:07:49.595Z,57.08
2022-10-19T10:08:49.607Z,56.43
2022-10-19T10:09:49.580Z,56.58
2022-10-19T10:10:49.610Z,56.63
2022-10-19T10:11:49.652Z,51.89
2022-10-19T10:12:49.586Z,48.49
2022-10-19T10:13:49.559Z,47.49
2022-10-19T10:14:49.579Z,48.23
2022-10-19T10:15:49.572Z,50.22
2022-10-19T10:16:49.525Z,53.19
2022-10-19T10:17:49.536Z,53.47
2022-10-19T10:18:49.510Z,55.25
2022-10-19T10:19:49.525Z,51.94
2022-10-19T10:20:49.556Z,49.55
2022-10-19T10:21:49.487Z,47.61
2022-10-19T10:22:49.525Z,45.23
2022-10-19T10:23:49.482Z,43.98
2022-10-19T10:24:49.482Z,46.20
2022-10-19T10:25:49.602Z,48.35
2022-10-19T10:26:49.507Z,51.04
2022-10-19T10:27:49.514Z,52.09
2022-10-19T10:28:49.452Z,53.19
2022-10-19T10:29:49.496Z,53.57
2022-10-19T10:30:49.434Z,52.00
2022-10-19T10:31:49.452Z,53.62
2022-10-19T10:32:49.490Z,57.81
2022-10-19T10:33:49.568Z,58.14
2022-10-19T10:34:53.075Z,59.94
2022-10-19T10:35:51.418Z,61.40
2022-10-19T10:36:49.428Z,60.27
2022-10-19T10:37:49.421Z,60.19
2022-10-19T10:38:49.421Z,60.97
2022-10-19T10:39:49.425Z,58.18
2022-10-19T10:40:49.373Z,53.79
2022-10-19T10:41:49.374Z,52.14
2022-10-19T10:42:49.381Z,47.74
2022-10-19T10:43:49.377Z,46.26
2022-10-19T10:44:49.337Z,43.84
2022-10-19T10:45:49.341Z,45.07
2022-10-19T10:46:49.363Z,44.66
2022-10-19T10:47:49.446Z,47.26
2022-10-19T10:48:51.483Z,48.22
2022-10-19T10:49:49.406Z,47.71
2022-10-19T10:50:49.305Z,47.19
2022-10-19T10:51:52.211Z,45.94
2022-10-19T10:52:49.295Z,44.34
2022-10-19T10:53:49.449Z,47.18
2022-10-19T10:54:49.314Z,52.14
2022-10-19T10:55:49.269Z,52.82
2022-10-19T10:56:49.319Z,50.32
2022-10-19T10:57:49.337Z,53.45
2022-10-19T10:58:49.263Z,55.26
2022-10-19T10:59:49.284Z,58.55
2022-10-19T11:00:50.053Z,58.88
2022-10-19T11:01:49.311Z,58.35
2022-10-19T11:02:49.267Z,58.25
2022-10-19T11:03:49.222Z,58.41
2022-10-19T11:04:52.176Z,59.64
2022-10-19T11:05:49.223Z,59.44
2022-10-19T11:06:49.222Z,59.27
2022-10-19T11:07:49.249Z,58.44
2022-10-19T11:08:49.406Z,58.35
2022-10-19T11:09:49.237Z,55.55
2022-10-19T11:10:49.242Z,56.95
2022-10-19T11:11:49.194Z,58.71
2022-10-19T11:12:49.200Z,60.85
2022-10-19T11:13:49.169Z,59.75
2022-10-19T11:14:49.274Z,60.96
2022-10-19T11:15:49.166Z,59.67
2022-10-19T11:16:49.177Z,61.52
2022-10-19T11:17:49.144Z,61.82
2022-10-19T11:18:49.174Z,62.76
2022-10-19T11:19:49.136Z,61.14
2022-10-19T11:20:49.248Z,59.56
2022-10-19T11:21:49.113Z,54.97
2022-10-19T11:22:49.122Z,53.55
2022-10-19T11:23:49.103Z,53.59
2022-10-19T11:24:49.183Z,56.49
2022-10-19T11:25:49.103Z,58.55
2022-10-19T11:26:49.164Z,58.38
2022-10-19T11:27:49.095Z,58.61
2022-10-19T11:28:49.126Z,58.23
2022-10-19T11:29:49.071Z,59.27
2022-10-19T11:30:50.725Z,58.84
2022-10-19T11:31:50.083Z,58.51
2022-10-19T11:32:49.063Z,57.50
2022-10-19T11:33:49.021Z,58.21
2022-10-19T11:34:50.037Z,58.03
2022-10-19T11:35:49.046Z,57.07
2022-10-19T11:36:49.041Z,56.24
2022-10-19T11:37:50.063Z,57.82
2022-10-19T11:38:50.991Z,55.38
2022-10-19T11:39:49.182Z,55.71
2022-10-19T11:41:12.847Z,51.46
2022-10-19T11:41:51.036Z,50.62
2022-10-19T11:42:48.970Z,47.35
2022-10-19T11:43:49.032Z,45.59
2022-10-19T11:44:49.618Z,43.75
2022-10-19T11:45:50.723Z,44.87
2022-10-19T11:46:48.939Z,43.93
2022-10-19T11:47:48.939Z,44.51
2022-10-19T11:48:52.875Z,44.43
2022-10-19T11:49:49.927Z,46.84
2022-10-19T11:50:54.081Z,46.55
2022-10-19T11:51:50.928Z,44.02
2022-10-19T11:52:48.891Z,44.33
2022-10-19T11:53:48.971Z,47.26
2022-10-19T11:54:48.902Z,49.76
2022-10-19T11:55:48.881Z,51.84
2022-10-19T11:57:03.224Z,53.55
2022-10-19T11:57:50.911Z,53.83
2022-10-19T11:58:48.884Z,53.85
2022-10-19T11:59:48.836Z,53.37
2022-10-19T12:00:49.871Z,51.14
2022-10-19T12:01:48.908Z,50.62
2022-10-19T12:02:48.861Z,51.14
2022-10-19T12:03:48.877Z,50.86
2022-10-19T12:04:48.822Z,52.49
2022-10-19T12:05:48.837Z,51.32
2022-10-19T12:06:48.829Z,47.85
2022-10-19T12:07:48.869Z,44.24
2022-10-19T12:08:51.289Z,43.33
2022-10-19T12:09:48.783Z,44.70
2022-10-19T12:10:48.780Z,41.17
2022-10-19T12:11:48.840Z,42.85
2022-10-19T12:12:48.790Z,42.09
2022-10-19T12:13:48.762Z,42.87
2022-10-19T12:14:48.866Z,43.17
2022-10-19T12:15:48.762Z,41.53
2022-10-19T12:16:48.765Z,38.96
2022-10-19T12:17:48.825Z,38.98
2022-10-19T12:18:48.736Z,38.76
2022-10-19T12:19:48.800Z,38.74
2022-10-19T12:20:48.728Z,38.13
2022-10-19T12:21:48.742Z,37.77
2022-10-19T12:22:48.771Z,38.50
2022-10-19T12:23:48.735Z,39.27
2022-10-19T12:24:48.725Z,40.38
2022-10-19T12:25:48.721Z,38.54
2022-10-19T12:26:48.708Z,37.41
2022-10-19T12:27:48.722Z,36.76
2022-10-19T12:28:48.684Z,38.05
2022-10-19T12:29:48.688Z,38.76
2022-10-19T12:30:48.689Z,38.05
2022-10-19T12:31:48.692Z,37.91
2022-10-19T12:32:53.414Z,36.11
2022-10-19T12:33:50.666Z,34.39
2022-10-19T12:34:48.697Z,34.92
2022-10-19T12:35:48.688Z,38.38
2022-10-19T12:36:48.644Z,40.62
2022-10-19T12:37:48.646Z,42.31
2022-10-19T12:38:51.035Z,43.23
2022-10-19T12:39:49.620Z,44.46
2022-10-19T12:40:48.737Z,44.11
2022-10-19T12:41:48.632Z,45.63
2022-10-19T12:42:48.631Z,44.31
2022-10-19T12:43:48.644Z,44.07
2022-10-19T12:44:48.593Z,44.07
2022-10-19T12:45:48.660Z,43.29
2022-10-19T12:46:51.689Z,45.05
2022-10-19T12:47:49.600Z,44.38
2022-10-19T12:48:48.582Z,44.19
2022-10-19T12:49:48.595Z,44.73
2022-10-19T12:50:48.614Z,43.83
2022-10-19T12:51:48.619Z,44.85
2022-10-19T12:52:48.573Z,45.35
2022-10-19T12:53:48.559Z,44.23
2022-10-19T12:54:48.562Z,43.37
2022-10-19T12:55:48.550Z,43.57
2022-10-19T12:56:49.776Z,42.37